KGOO

Nevada County Airport

Grass Valley, California, USA
METAR KGOO 241200Z AUTO 00000KT 10SM CLR 02/M16 A3029 RMK AO1
Observed Flight Rules
Feb-24 @ 12:00 UTC (20 minutes ago) Visual Flight Rules
Wind Visibility Clouds
Calm 10 miles
  • Clear skies
Temperatures Readings
Current 2°C / 36°F
Dewpoint -16°C / 3°F
Humidity 25%
Altimeter 30.29" Hg
Pressure 1026 hPa
Elevation 962
METAR KGOO 241200Z AUTO 00000KT 10SM CLR 02/M16 A3029 RMK AO1
Observed Flight Rules
Feb-24 @ 12:00 UTC
(20 minutes ago)
VFR
Wind Visibility
Calm 10 miles
Clouds
  • Clear skies
Temperature Dewpoint
2°C / 36°F -16°C / 3°F
Humidity Altimeter Pressure
25% 30.29" Hg 1026 hPa